Colorado Springs, CO

12:35 PM MST on January 21, 2017 (GMT -0700)
Crown Hill Mesa | | Change Station

Elev 6171 ft 38.82 °N, 104.85 °W | Updated 6 seconds ago

Mawingu sehemu nyingi
Mawingu sehemu nyingi
40.5 °F
Feels Like 40 °F
N
0.0
Upepo Ya mabadiliko Upepo from Kusini-kusini-Magharibi(KKMg)
Gusts 0.0 mph

Leo
High -- | Low -- °F
--% Chance of Precip.
Yesterday
High -- | Low -- °F
Precip. -- nchi
Shinikizo 29.38 nchi
Mwangaza 10.0 meli
Clouds Mawingu ya hapa na pale 8500 ft
Mawingu sehemu nyingi 11000 ft
Mawingu sehemu nyingi 22000 ft
Ubaridi wa upepo 40 °F
Kilele cha umande 21 °F
Unyevu 46%
Rainfall 0.00 nchi
Snow Depth Not available.
7:13 AM 5:08 PM
Waning Crescent, 33% visible
METAR KCOS 211854Z 09006KT 10SM SCT085 BKN110 BKN220 04/M07 A2934 RMK AO2 SLP948 T00391067
Shinikizo 29.38 nchi
Mwangaza 10.0 meli
Clouds Mawingu ya hapa na pale 8500 ft
Mawingu sehemu nyingi 11000 ft
Mawingu sehemu nyingi 22000 ft
Ubaridi wa upepo 40 °F
Kilele cha umande 21 °F
Unyevu 46%
Rainfall 0.00 nchi
Snow Depth Not available.
7:13 AM 5:08 PM
Waning Crescent, 33% visible
METAR KCOS 211854Z 09006KT 10SM SCT085 BKN110 BKN220 04/M07 A2934 RMK AO2 SLP948 T00391067

Get Your Daily Forecast Email!

Thanks for signing up!

Be on the lookout for a verification email in your inbox.

You'll start receiving the daily forecast at 8 AM.

×

10-Day Weather Forecast

Almanac

Astronomy

Jan. 21, 2017 Rise Set
Actual Time
Civil Twilight
Nautical Twilight
Astronomical Twilight
Moon
Length Of Visible Light
Length of Day
Tomorrow will be .
, % of the Moon is Illuminated

Today's Extremes

State Highs State Lows

Community

WunderPhotos

Upload Photos

1,962,540 photos uploaded!

WunderBlog® & News

Nearby

Air Quality

  Air Quality AQ Index Pollutant
Not available.

Snow Depth

Station Depth Elevation

Earthquake Activity

City Distance Mag. Time & Date
Minimum magnitude displayed is 2.5.

Coastal Water Temperatures

Mahali Hali ya Hewa

Stations

Nearby Weather Stations

Station Location Temp Ubaridi wa upepo Kilele cha umande Unyevu Upepo Precip. Elev Imesharekibishwa Type
                   

Watches & Warnings

There are currently no watches in effect.